PENO2: Grand Lake O' The Cherokees, Pensacola Dm

Data processed at Thu Jan 23 2020 22:15


All information presented herein is the property of the government of the United States of America and may be revised or deleted at any time without prior notice.
Dissemination of this information without the expressed written consent of the Public Affairs Office, Tulsa District U.S. Army Corps of Engineers is strictly prohibited.
These data are gathered electronically and, as presented, have not undergone any form of quality control. These data are not guaranteed to be valid or correct.
Go to home page.
Go to station list.
Go to home page.

Upstream stations:

Downstream station:
Previous Day
Next Day
Current Day
    
SHEF ID:       PENO2     Pensacola (Grand Lake)
STATION TYPE:  RESERVOIR
Flood Pool:  Bottom =   742.00, Top =   755.00

               PRECIP ELEVATION   STORAGE    INFLOW   RELEASE  AIR-TEMP  WIND-DIRWIND-SPEED REL-HUMID SOLAR-RAD   VOLTAGE  BAT-LOAD
                   in        ft     ac-ft       cfs       cfs         F       deg       mph         %      W/m2      volt      volt
              Ccp-Rev   Ccp-Rev   Ccp-Rev  Rev-Regi  Rev-Regi   Ccp-Rev   Ccp-Rev   Ccp-Rev   Ccp-Rev   Ccp-Rev   Ccp-Rev   Ccp-Rev
(US/Central)
01/23 00:00      0.02    745.30   1528210     16232     11070     36.77    174.44      1.18    100.17      0.00     12.77     12.49
01/23 01:00      0.02    745.31   1528637     13130     11069     36.84    172.44      1.47    100.16      0.00     12.75     12.49
01/23 02:00      0.01    745.32   1529064     13127     11057     36.88    172.74      1.62    100.17      0.00     12.74     12.49
01/23 03:00      0.00    745.31   1528637     13126     11058     36.84    168.61      1.87    100.17      0.00     12.73     12.49
01/23 04:00      0.00    745.33   1529491     12092     11048     36.84    169.56      1.67    100.17      0.00     12.71     12.41
01/23 05:00      0.00    745.32   1529064     12093     11066     36.82    178.53      1.28    100.17      0.00     12.70     12.41
01/23 06:00      0.00    745.32   1529064     14159     11065     36.95    175.15      1.54    100.17      0.00     12.70     12.41
01/23 07:00      0.00    745.33   1529491     11059     11060     37.20    162.42      1.97    100.17      0.00     12.69     12.41
01/23 08:00      0.00    745.34   1529918     13123     11057     37.17    174.21      2.23    100.17      0.00     12.67     12.41
01/23 09:00      0.01    745.33   1529491     13120     11048     37.47    171.79      2.71    100.17      0.01     12.66     12.41
01/23 10:00      0.00    745.34   1529918     13118     11053     37.98    176.78      3.53    100.17     24.60     12.64     12.41
01/23 11:00      0.00    745.34   1529918     11905     11048     38.26    196.16      3.55    100.17     33.71     12.63     12.41
01/23 12:00      0.00    745.35   1530345     12761     11050     39.11    196.23      3.62    100.17    127.08     12.61     12.33
01/23 13:00      0.00    745.35   1530345     13450     11051     40.89    207.33      3.12     98.16    109.94     12.59     12.33
01/23 14:00      0.00    745.35   1530345     14222     11052     41.54    193.39      2.76     96.57     45.62     12.57     12.33
01/23 15:00      0.00    745.37   1531199     13012     11050     42.67    180.51      2.87     94.81     77.47     12.56     12.33
01/23 16:00      0.00    745.38   1531626     13963     11052     44.42    201.02      2.44     91.41     80.20     12.54     12.25
01/23 17:00      0.00    745.38   1531626     13964     11056     45.05    177.87      0.99     88.28     19.82     12.53     12.25
01/23 18:00      0.00    745.39   1532053     13964     11052     44.46    137.02      0.77     90.62      0.20     12.53     12.25
01/23 19:00      0.04    745.39   1532053     10982     11060     43.14    273.50      4.62     94.54      0.00     12.52     12.25
01/23 20:00      0.03    745.41   1532907     12881     11051     41.54    268.65      5.70     94.54      0.00     12.52     12.25
01/23 21:00      0.00    745.37   1531199      5966     11047     40.51    257.77      5.18     93.36      0.00     12.51     12.25
01/23 22:00      ----      ----      ----      ----      ----      ----      ----      ----      ----      ----      ----      ----
01/23 23:00      ----      ----      ----      ----      ----      ----      ----      ----      ----      ----      ----      ----